Chadron Municipal Airport

Airport
ICAO code: 
KCDR
Summary
ICAO Region: 
NAM
Territory: 
Location: 
Chadron, Nebraska,
Coordinates: 
Aerial View: 
42° 50' 19.932" N, 103° 5' 38.623" W
Airport CFIT: 
Altimeter Temperature Error Correction
Airport WX: 
Cumulonimbus
Metar
Observation
KCDR 020953Z AUTO 24007KT 10SM CLR 06/M03 A3000 RMK AO2 SLP157 T00561028
Station
Chadron, Chadron Municipal Airport
Date/Time
2021-12-02 09:53:00
Wind direction
240°
Wind speed
07 kts
Lowest cloud amount
n/a
Temperature
5.6°C
Dew point
-2.8°C
Humidity
54%
Weather condition
n/a

Description

Chadron Municipal Airport is a public use airport located 7 km west of the central business district of Chadron, a city in Dawes County, Nebraska.

Climatology

Semi-arid climate (Köppen climate classification BSk). - Hot, sometimes extremely hot summers and cold, sometimes very cold winters. Some snowfall during the winter. Areas featuring cold semi-arid climates are sometimes subject to major temperature swings during a 24 hour period.

Runways

Designator Length Width Surface Rops
11/29 1341 23 CON Yes/Yes
2/20 1829 30 CON Yes/Yes
Airport map: 
Aerial View: 

SKYbrary Partners:

Safety knowledge contributed by: